Time;durP1;ratioP1;P1;durP2;ratioP2;P2;SDS_P1;SDS_P2;PMS_P1;PMS_P2;Temp;Humidity;BMP_temperature;BMP_pressure;BME280_temperature;BME280_humidity;BME280_pressure;Samples;Min_cycle;Max_cycle;Signal;HPM_P1;HPM_P2
2022/09/02 00:00:59;;;;;;;5.28;4.28;;;12.90;99.90;;;;;;2122045;28;20023;-72
2022/09/02 00:02:00;;;;;;;5.00;4.00;;;12.90;99.90;;;;;;2121552;28;20035;-72
2022/09/02 00:03:01;;;;;;;4.70;4.20;;;12.90;99.90;;;;;;2121757;27;20032;-72
2022/09/02 00:04:14;;;;;;;5.25;4.25;;;12.90;99.90;;;;;;2121752;28;20034;-72
2022/09/02 00:05:16;;;;;;;4.25;3.88;;;12.90;99.90;;;;;;2121657;27;20034;-71
2022/09/02 00:06:17;;;;;;;5.68;4.38;;;12.80;99.90;;;;;;2122049;27;20031;-71
2022/09/02 00:07:18;;;;;;;6.03;4.55;;;12.80;99.90;;;;;;2122407;27;20023;-71
2022/09/02 00:08:19;;;;;;;5.13;4.22;;;12.80;99.90;;;;;;2122002;27;20560;-73
2022/09/02 00:09:23;;;;;;;5.03;4.10;;;12.80;99.90;;;;;;2121945;27;20076;-71
2022/09/02 00:10:24;;;;;;;4.28;3.88;;;12.80;99.90;;;;;;2121456;28;20470;-71
2022/09/02 00:11:35;;;;;;;4.78;4.28;;;12.80;99.90;;;;;;2122628;27;20019;-71
2022/09/02 00:12:36;;;;;;;5.70;4.40;;;12.70;99.90;;;;;;2121450;28;20034;-70
2022/09/02 00:13:37;;;;;;;6.53;4.50;;;12.70;99.90;;;;;;2121697;27;20215;-71
2022/09/02 00:14:38;;;;;;;6.38;4.47;;;12.70;99.90;;;;;;2121890;28;20431;-71
2022/09/02 00:15:39;;;;;;;4.57;4.10;;;12.80;99.90;;;;;;2122143;28;20055;-71
2022/09/02 00:16:41;;;;;;;4.75;4.28;;;12.70;99.90;;;;;;2121581;28;20039;-72
2022/09/02 00:17:41;;;;;;;4.32;3.92;;;12.70;99.90;;;;;;2121405;27;20114;-71
2022/09/02 00:18:43;;;;;;;6.07;4.65;;;12.70;99.90;;;;;;2122163;28;20031;-71
2022/09/02 00:19:44;;;;;;;6.88;4.05;;;12.70;99.90;;;;;;2122613;28;20027;-71
2022/09/02 00:20:47;;;;;;;5.38;4.10;;;12.70;99.90;;;;;;2122083;28;20027;-71
2022/09/02 00:21:49;;;;;;;6.38;4.20;;;12.70;99.90;;;;;;2122114;27;20023;-72
2022/09/02 00:22:50;;;;;;;6.22;4.07;;;12.70;99.90;;;;;;2121969;27;20035;-73
2022/09/02 00:23:54;;;;;;;6.97;4.22;;;12.60;99.90;;;;;;2121907;27;20392;-73
2022/09/02 00:24:55;;;;;;;5.18;4.55;;;12.60;99.90;;;;;;2122057;27;20533;-73
2022/09/02 00:26:00;;;;;;;7.15;4.50;;;12.60;99.90;;;;;;2121371;27;20471;-72
2022/09/02 00:27:04;;;;;;;6.95;4.50;;;12.60;99.90;;;;;;2121809;28;20059;-74
2022/09/02 00:29:43;;;;;;;4.90;4.40;;;12.60;99.90;;;;;;2117844;28;20039;-73
2022/09/02 00:30:51;;;;;;;5.68;4.38;;;12.50;99.90;;;;;;2121364;27;20030;-73
2022/09/02 00:31:56;;;;;;;5.80;4.53;;;12.50;99.90;;;;;;2112991;28;20023;-73
2022/09/02 00:33:30;;;;;;;5.40;4.68;;;12.50;99.90;;;;;;2112876;28;20027;-72
2022/09/02 00:34:37;;;;;;;6.75;4.40;;;12.50;99.90;;;;;;2103845;28;20023;-74
2022/09/02 00:36:10;;;;;;;5.97;4.63;;;12.50;99.90;;;;;;2114091;28;20023;-72
2022/09/02 00:37:19;;;;;;;6.78;4.65;;;12.50;99.90;;;;;;2112284;28;20489;-71
2022/09/02 00:38:20;;;;;;;6.70;4.82;;;12.50;99.90;;;;;;2113551;28;20091;-71
2022/09/02 00:39:21;;;;;;;7.65;4.72;;;12.40;99.90;;;;;;2121819;27;20031;-70
2022/09/02 00:40:22;;;;;;;7.53;5.00;;;12.50;99.90;;;;;;2120936;27;20031;-71
2022/09/02 00:41:28;;;;;;;6.15;4.80;;;12.40;99.90;;;;;;2121345;28;20035;-71
2022/09/02 00:42:29;;;;;;;5.10;4.28;;;12.40;99.90;;;;;;2120729;28;20023;-71
2022/09/02 00:43:46;;;;;;;6.47;4.50;;;12.40;99.90;;;;;;2120940;27;20094;-71
2022/09/02 00:44:48;;;;;;;5.22;4.72;;;12.40;99.90;;;;;;2121038;28;20077;-71
2022/09/02 00:45:49;;;;;;;6.35;4.75;;;12.40;99.90;;;;;;2121241;27;20145;-71
2022/09/02 00:46:50;;;;;;;6.88;4.40;;;12.50;99.90;;;;;;2121659;27;20069;-70
2022/09/02 00:47:51;;;;;;;5.18;4.32;;;12.40;99.90;;;;;;2121598;28;20550;-71
2022/09/02 00:48:59;;;;;;;5.32;4.80;;;12.40;99.90;;;;;;2120717;27;20031;-71
2022/09/02 00:50:02;;;;;;;5.50;4.50;;;12.50;99.90;;;;;;2113552;28;20028;-70
2022/09/02 00:51:03;;;;;;;5.13;4.30;;;12.50;99.90;;;;;;2121440;28;20038;-71
2022/09/02 00:52:21;;;;;;;6.15;4.70;;;12.40;99.90;;;;;;2121282;28;20108;-71
2022/09/02 00:53:22;;;;;;;5.60;4.60;;;12.40;99.90;;;;;;2115397;27;20027;-72
2022/09/02 00:54:26;;;;;;;4.88;4.38;;;12.40;99.90;;;;;;2122920;27;20026;-73
2022/09/02 00:55:30;;;;;;;5.63;4.70;;;12.40;99.90;;;;;;2122529;27;20070;-73
2022/09/02 00:56:32;;;;;;;5.93;4.38;;;12.40;99.90;;;;;;2122583;27;20034;-72
2022/09/02 00:57:44;;;;;;;5.60;5.05;;;12.40;99.90;;;;;;2122446;27;20066;-73
2022/09/02 00:58:46;;;;;;;5.97;4.63;;;12.40;99.90;;;;;;2122736;27;20593;-73
2022/09/02 01:00:08;;;;;;;6.03;4.80;;;12.40;99.90;;;;;;2123345;27;20027;-72
2022/09/02 01:01:10;;;;;;;6.75;4.60;;;12.40;99.90;;;;;;2122837;27;20107;-73
2022/09/02 01:02:14;;;;;;;6.00;4.70;;;12.30;99.90;;;;;;2122815;27;20023;-72
2022/09/02 01:03:19;;;;;;;5.75;4.70;;;12.30;99.90;;;;;;2114073;28;20015;-70
2022/09/02 01:04:20;;;;;;;7.03;4.70;;;12.40;99.90;;;;;;2106794;27;20028;-71
2022/09/02 01:05:23;;;;;;;7.18;4.70;;;12.40;99.90;;;;;;2122534;27;20054;-71
2022/09/02 01:06:26;;;;;;;5.75;4.70;;;12.40;99.90;;;;;;2113575;28;20425;-71
2022/09/02 01:07:32;;;;;;;7.80;4.75;;;12.40;99.90;;;;;;2106179;27;20154;-71
2022/09/02 01:08:35;;;;;;;6.28;4.70;;;12.30;99.90;;;;;;2114386;27;20102;-71
2022/09/02 01:09:36;;;;;;;5.75;4.95;;;12.30;99.90;;;;;;2122793;27;20289;-72
2022/09/02 01:10:39;;;;;;;5.43;4.90;;;12.30;99.90;;;;;;2122804;27;20039;-71
2022/09/02 01:11:50;;;;;;;6.93;5.20;;;12.30;99.90;;;;;;2122365;27;20030;-71
2022/09/02 01:12:59;;;;;;;6.20;4.95;;;12.30;99.90;;;;;;2115203;27;20027;-71
2022/09/02 01:14:00;;;;;;;8.00;5.10;;;12.30;99.90;;;;;;2122545;27;20016;-71
2022/09/02 01:15:03;;;;;;;5.90;4.90;;;12.30;99.90;;;;;;2123160;27;20031;-71
2022/09/02 01:16:10;;;;;;;5.30;4.78;;;12.30;99.90;;;;;;2122234;27;20122;-71
2022/09/02 01:17:11;;;;;;;5.95;4.80;;;12.20;99.90;;;;;;2106183;28;20040;-71
2022/09/02 01:18:19;;;;;;;7.55;4.82;;;12.20;99.90;;;;;;2114031;28;20028;-71
2022/09/02 01:19:43;;;;;;;5.68;4.80;;;12.20;99.90;;;;;;2122436;27;20035;-71
2022/09/02 01:20:46;;;;;;;6.15;4.65;;;12.20;99.90;;;;;;2122806;27;20058;-71
2022/09/02 01:21:48;;;;;;;6.65;4.47;;;12.20;99.90;;;;;;2123035;27;20575;-71
2022/09/02 01:22:51;;;;;;;7.25;4.65;;;12.20;99.90;;;;;;2122078;27;20031;-71
2022/09/02 01:23:52;;;;;;;6.60;4.88;;;12.10;99.90;;;;;;2125504;27;20027;-71
2022/09/02 01:24:56;;;;;;;5.32;4.72;;;12.10;99.90;;;;;;2129801;27;20027;-71
2022/09/02 01:25:57;;;;;;;6.63;5.10;;;12.10;99.90;;;;;;2129549;27;20121;-71
2022/09/02 01:26:59;;;;;;;5.20;4.65;;;12.10;99.90;;;;;;2129933;27;20445;-71
2022/09/02 01:28:07;;;;;;;6.20;4.90;;;12.10;99.90;;;;;;2130284;27;20035;-72
2022/09/02 01:29:08;;;;;;;5.85;4.88;;;12.10;99.90;;;;;;2128433;27;20015;-71
2022/09/02 01:30:12;;;;;;;5.57;4.80;;;12.10;99.90;;;;;;2113147;28;20024;-71
2022/09/02 01:31:13;;;;;;;7.13;5.00;;;12.10;99.90;;;;;;2114740;27;20607;-71
2022/09/02 01:32:14;;;;;;;5.90;5.10;;;12.10;99.90;;;;;;2129825;27;20019;-72
2022/09/02 01:33:17;;;;;;;6.82;5.28;;;12.00;99.90;;;;;;2129459;27;20027;-72
2022/09/02 01:34:18;;;;;;;6.25;5.03;;;12.10;99.90;;;;;;2123361;27;20505;-72
2022/09/02 01:35:19;;;;;;;5.57;5.07;;;12.00;99.90;;;;;;2123072;27;20030;-72
2022/09/02 01:36:20;;;;;;;6.45;5.10;;;12.00;99.90;;;;;;2122319;27;20019;-71
2022/09/02 01:37:21;;;;;;;5.70;5.10;;;12.00;99.90;;;;;;2122578;27;20272;-71
2022/09/02 01:38:23;;;;;;;5.35;4.85;;;12.00;99.90;;;;;;2122840;27;20023;-72
2022/09/02 01:39:24;;;;;;;7.28;5.10;;;12.00;99.90;;;;;;2122161;27;20547;-71
2022/09/02 01:40:26;;;;;;;8.10;5.30;;;11.90;99.90;;;;;;2113777;28;20051;-73
2022/09/02 01:41:26;;;;;;;5.80;5.20;;;11.90;99.90;;;;;;2113642;27;20778;-71
2022/09/02 01:42:27;;;;;;;7.05;5.30;;;11.90;99.90;;;;;;2113300;28;20043;-71
2022/09/02 01:43:28;;;;;;;5.85;5.00;;;11.90;99.90;;;;;;2122089;27;20607;-72
2022/09/02 01:44:29;;;;;;;5.95;5.35;;;11.90;99.90;;;;;;2122262;27;20042;-72
2022/09/02 01:45:30;;;;;;;6.55;5.50;;;11.90;99.90;;;;;;2122470;27;20065;-72
2022/09/02 01:46:33;;;;;;;5.80;5.18;;;11.90;99.90;;;;;;2121992;27;20402;-71
2022/09/02 01:47:35;;;;;;;5.78;4.93;;;11.90;99.90;;;;;;2114030;27;20027;-71
2022/09/02 01:48:35;;;;;;;5.75;5.25;;;11.90;99.90;;;;;;2113576;28;20031;-72
2022/09/02 01:49:36;;;;;;;5.82;4.93;;;11.90;99.90;;;;;;2122349;27;20095;-71
2022/09/02 01:50:40;;;;;;;5.93;5.28;;;11.90;99.90;;;;;;2122606;27;20019;-72
2022/09/02 01:51:41;;;;;;;6.00;5.13;;;11.90;99.90;;;;;;2122717;27;20019;-71
2022/09/02 01:52:42;;;;;;;5.70;5.10;;;11.90;99.90;;;;;;2122437;27;20429;-71
2022/09/02 01:53:44;;;;;;;5.57;5.00;;;11.90;99.90;;;;;;2121840;27;20409;-71
2022/09/02 01:54:45;;;;;;;5.60;5.10;;;11.90;99.90;;;;;;2113833;28;20036;-71
2022/09/02 01:55:46;;;;;;;6.75;5.10;;;11.80;99.90;;;;;;2113390;28;20757;-71
2022/09/02 01:56:47;;;;;;;5.70;5.15;;;11.80;99.90;;;;;;2113378;28;20032;-71
2022/09/02 01:57:47;;;;;;;8.10;5.00;;;11.80;99.90;;;;;;2121945;27;20185;-71
2022/09/02 01:58:48;;;;;;;5.57;5.00;;;11.80;99.90;;;;;;2113376;28;20024;-70
2022/09/02 01:59:51;;;;;;;7.18;5.22;;;11.80;99.90;;;;;;2113522;28;20032;-71
2022/09/02 02:00:52;;;;;;;6.25;4.97;;;11.80;99.90;;;;;;2113458;28;20467;-71
2022/09/02 02:01:52;;;;;;;6.47;5.18;;;11.80;99.90;;;;;;2113444;28;20454;-71
2022/09/02 02:02:54;;;;;;;7.15;5.10;;;11.70;99.90;;;;;;2113405;27;20141;-71
2022/09/02 02:03:55;;;;;;;6.82;5.18;;;11.70;99.90;;;;;;2122121;27;20027;-71
2022/09/02 02:04:57;;;;;;;7.15;5.13;;;11.80;99.90;;;;;;2121251;27;20027;-71
2022/09/02 02:05:59;;;;;;;6.47;5.13;;;11.70;99.90;;;;;;2113286;27;20052;-71
2022/09/02 02:07:02;;;;;;;7.45;5.25;;;11.70;99.90;;;;;;2113283;27;20031;-71
2022/09/02 02:08:03;;;;;;;7.05;5.13;;;11.80;99.90;;;;;;2121930;27;20792;-71
2022/09/02 02:09:04;;;;;;;5.90;4.93;;;11.80;99.90;;;;;;2121902;27;20512;-71
2022/09/02 02:10:07;;;;;;;7.85;4.90;;;11.80;99.90;;;;;;2113591;27;20888;-71
2022/09/02 02:11:08;;;;;;;5.20;4.70;;;11.80;99.90;;;;;;2122041;27;20401;-71
2022/09/02 02:12:10;;;;;;;5.10;4.60;;;11.80;99.90;;;;;;2122399;27;20037;-72
2022/09/02 02:13:11;;;;;;;5.70;4.97;;;11.80;99.90;;;;;;2122493;27;20069;-72
2022/09/02 02:14:12;;;;;;;5.20;4.70;;;11.80;99.90;;;;;;2121697;27;20031;-72
2022/09/02 02:15:23;;;;;;;6.75;4.88;;;11.80;99.90;;;;;;2113928;28;20019;-72
2022/09/02 02:16:23;;;;;;;5.60;5.00;;;11.80;99.90;;;;;;2106913;28;20039;-71
2022/09/02 02:17:24;;;;;;;6.55;5.40;;;11.70;99.90;;;;;;2121996;27;20031;-72
2022/09/02 02:18:25;;;;;;;5.60;4.75;;;11.70;99.90;;;;;;2122014;27;20035;-72
2022/09/02 02:19:27;;;;;;;5.70;5.00;;;11.70;99.90;;;;;;2113531;28;20063;-72
2022/09/02 02:20:28;;;;;;;5.35;4.85;;;11.70;99.90;;;;;;2113600;28;20476;-72
2022/09/02 02:21:29;;;;;;;8.23;5.07;;;11.70;99.90;;;;;;2122117;27;20416;-72
2022/09/02 02:22:30;;;;;;;6.03;5.28;;;11.70;99.90;;;;;;2122043;27;20023;-71
2022/09/02 02:23:31;;;;;;;5.93;4.93;;;11.70;99.90;;;;;;2113395;28;20047;-72
2022/09/02 02:24:32;;;;;;;5.82;4.60;;;11.70;99.90;;;;;;2122819;27;20085;-73
2022/09/02 02:25:35;;;;;;;5.07;4.53;;;11.70;99.90;;;;;;2121961;27;20030;-74
2022/09/02 02:26:35;;;;;;;6.93;5.00;;;11.60;99.90;;;;;;2121996;27;20763;-72
2022/09/02 02:27:38;;;;;;;6.18;4.95;;;11.70;99.90;;;;;;2121768;27;20026;-72
2022/09/02 02:28:41;;;;;;;5.57;4.88;;;11.60;99.90;;;;;;2113175;28;20023;-72
2022/09/02 02:29:42;;;;;;;5.35;4.85;;;11.60;99.90;;;;;;2105060;28;20106;-73
2022/09/02 02:30:43;;;;;;;5.95;5.00;;;11.60;99.90;;;;;;2113482;28;20026;-73
2022/09/02 02:31:48;;;;;;;5.57;5.03;;;11.60;99.90;;;;;;2113867;27;20039;-72
2022/09/02 02:32:49;;;;;;;8.27;4.68;;;11.60;99.90;;;;;;2122357;27;20042;-71
2022/09/02 02:33:52;;;;;;;6.78;4.93;;;11.60;99.90;;;;;;2122627;27;20027;-71
2022/09/02 02:34:53;;;;;;;6.75;4.90;;;11.60;99.90;;;;;;2113975;28;20035;-72
2022/09/02 02:35:55;;;;;;;6.68;4.95;;;11.60;99.90;;;;;;2122355;27;20023;-72
2022/09/02 02:36:55;;;;;;;5.45;4.95;;;11.60;99.90;;;;;;2122297;27;20720;-71
2022/09/02 02:37:56;;;;;;;5.40;4.90;;;11.60;99.90;;;;;;2122446;27;20039;-71
2022/09/02 02:38:58;;;;;;;5.70;4.85;;;11.50;99.90;;;;;;2122396;27;20035;-72
2022/09/02 02:39:58;;;;;;;6.32;4.95;;;11.50;99.90;;;;;;2114025;28;20020;-72
2022/09/02 02:41:04;;;;;;;6.78;5.20;;;11.50;99.90;;;;;;2114192;28;20046;-72
2022/09/02 02:42:06;;;;;;;6.13;5.07;;;11.50;99.90;;;;;;2114166;28;20028;-72
2022/09/02 02:43:06;;;;;;;6.97;5.13;;;11.50;99.90;;;;;;2122175;27;20123;-72
2022/09/02 02:44:07;;;;;;;8.93;4.70;;;11.50;99.90;;;;;;2121991;27;20034;-72
2022/09/02 02:45:11;;;;;;;5.57;4.75;;;11.50;99.90;;;;;;2121698;27;20497;-71
2022/09/02 02:46:14;;;;;;;5.20;4.70;;;11.50;99.90;;;;;;2113729;27;20028;-72
2022/09/02 02:47:15;;;;;;;6.30;4.72;;;11.50;99.90;;;;;;2121478;27;20499;-71
2022/09/02 02:48:15;;;;;;;5.82;4.72;;;11.50;99.90;;;;;;2121610;27;20026;-72
2022/09/02 02:49:16;;;;;;;6.60;4.95;;;11.40;99.90;;;;;;2113002;28;20026;-71
2022/09/02 02:50:20;;;;;;;5.35;4.55;;;11.40;99.90;;;;;;2113028;28;20028;-71
2022/09/02 02:51:21;;;;;;;7.90;5.05;;;11.40;99.90;;;;;;2113264;27;20024;-71
2022/09/02 02:52:24;;;;;;;6.88;4.95;;;11.40;99.90;;;;;;2113003;27;20092;-71
2022/09/02 02:53:28;;;;;;;5.40;4.75;;;11.40;99.90;;;;;;2113052;28;20024;-71
2022/09/02 02:54:29;;;;;;;5.47;4.75;;;11.40;99.90;;;;;;2113234;28;20086;-72
2022/09/02 02:55:32;;;;;;;5.63;4.88;;;11.40;99.90;;;;;;2113173;27;20106;-72
2022/09/02 02:56:34;;;;;;;6.32;5.13;;;11.40;99.90;;;;;;2121979;27;20031;-72
2022/09/02 02:57:38;;;;;;;6.03;5.35;;;11.40;99.90;;;;;;2121565;27;20079;-71
2022/09/02 02:58:40;;;;;;;6.78;5.10;;;11.40;99.90;;;;;;2113476;28;20030;-73
2022/09/02 02:59:42;;;;;;;6.47;5.40;;;11.40;99.90;;;;;;2113048;28;20031;-71
2022/09/02 03:00:46;;;;;;;5.78;5.28;;;11.40;99.90;;;;;;2113220;27;20441;-71
2022/09/02 03:01:49;;;;;;;6.40;5.15;;;11.40;99.90;;;;;;2113155;27;20114;-71
2022/09/02 03:02:57;;;;;;;6.15;5.10;;;11.30;99.90;;;;;;2121501;27;20023;-71
2022/09/02 03:03:58;;;;;;;6.35;5.30;;;11.30;99.90;;;;;;2121731;27;20113;-71
2022/09/02 03:05:00;;;;;;;6.10;5.50;;;11.30;99.90;;;;;;2113014;28;20027;-70
2022/09/02 03:06:01;;;;;;;5.80;5.20;;;11.30;99.90;;;;;;2112725;28;20148;-71
2022/09/02 03:07:06;;;;;;;6.80;5.45;;;11.30;99.90;;;;;;2104754;28;20039;-71
2022/09/02 03:08:09;;;;;;;7.38;5.30;;;11.20;99.90;;;;;;2113198;27;20105;-71
2022/09/02 03:09:10;;;;;;;6.30;4.90;;;11.30;99.90;;;;;;2113371;28;20033;-71
2022/09/02 03:10:12;;;;;;;7.60;5.05;;;11.30;99.90;;;;;;2113171;28;20024;-71
2022/09/02 03:11:16;;;;;;;6.90;5.18;;;11.20;99.90;;;;;;2121329;27;20578;-71
2022/09/02 03:12:17;;;;;;;5.57;5.05;;;11.20;99.90;;;;;;2113283;28;20043;-71
2022/09/02 03:13:18;;;;;;;6.15;4.55;;;11.20;99.90;;;;;;2113515;28;20019;-71
2022/09/02 03:14:19;;;;;;;6.47;5.00;;;11.20;99.90;;;;;;2121969;27;20034;-71
2022/09/02 03:15:20;;;;;;;7.70;5.05;;;11.20;99.90;;;;;;2113207;28;20035;-70
2022/09/02 03:16:25;;;;;;;5.55;4.68;;;11.10;99.90;;;;;;2121593;27;20042;-70
2022/09/02 03:17:27;;;;;;;5.85;5.03;;;11.10;99.90;;;;;;2121971;27;20023;-72
2022/09/02 03:18:29;;;;;;;6.90;4.80;;;11.20;99.90;;;;;;2113476;27;20055;-72
2022/09/02 03:19:31;;;;;;;5.40;4.90;;;11.10;99.90;;;;;;2121737;27;20031;-71
2022/09/02 03:20:32;;;;;;;5.40;4.90;;;11.10;99.90;;;;;;2121433;27;20163;-71
2022/09/02 03:21:37;;;;;;;5.78;5.18;;;11.10;99.90;;;;;;2104911;28;20053;-71
2022/09/02 03:22:38;;;;;;;6.50;5.28;;;11.10;99.90;;;;;;2113091;28;20490;-71
2022/09/02 03:23:42;;;;;;;5.93;5.18;;;11.10;99.90;;;;;;2121270;27;20047;-71
2022/09/02 03:24:43;;;;;;;5.70;5.10;;;11.10;99.90;;;;;;2121203;27;20023;-71
2022/09/02 03:25:45;;;;;;;5.55;4.93;;;11.10;99.90;;;;;;2121472;27;20021;-75
2022/09/02 03:27:06;;;;;;;5.38;4.88;;;11.10;99.90;;;;;;2121174;27;20043;-71
2022/09/02 03:28:07;;;;;;;5.40;4.90;;;11.10;99.90;;;;;;2121478;27;20027;-71
2022/09/02 03:29:08;;;;;;;8.10;5.05;;;11.10;99.90;;;;;;2121242;27;20031;-71
2022/09/02 03:30:12;;;;;;;6.13;5.10;;;11.10;99.90;;;;;;2121163;27;20066;-71
2022/09/02 03:31:17;;;;;;;5.93;4.95;;;11.10;99.90;;;;;;2113181;28;20062;-74
2022/09/02 03:32:17;;;;;;;5.65;4.70;;;11.10;99.90;;;;;;2121049;27;20459;-71
2022/09/02 03:33:18;;;;;;;6.15;5.05;;;11.10;99.90;;;;;;2112757;28;20028;-72
2022/09/02 03:34:20;;;;;;;5.00;4.50;;;11.10;99.90;;;;;;2112633;28;20055;-72
2022/09/02 03:35:21;;;;;;;5.70;4.80;;;11.10;99.90;;;;;;2112728;28;20032;-71
2022/09/02 03:36:26;;;;;;;5.93;5.07;;;11.10;99.90;;;;;;2112671;28;20048;-72
2022/09/02 03:37:27;;;;;;;5.20;4.70;;;11.10;99.90;;;;;;2113125;27;20028;-71
2022/09/02 03:38:28;;;;;;;6.07;4.85;;;11.10;99.90;;;;;;2121112;27;20550;-71
2022/09/02 03:39:28;;;;;;;7.88;4.95;;;11.10;99.90;;;;;;2121019;27;20035;-71
2022/09/02 03:40:29;;;;;;;6.00;5.05;;;11.10;99.90;;;;;;2112482;28;20509;-71
2022/09/02 03:41:30;;;;;;;5.50;4.80;;;11.10;99.90;;;;;;2112668;28;20030;-71
2022/09/02 03:42:32;;;;;;;6.57;4.97;;;11.10;99.90;;;;;;2104124;28;20024;-71
2022/09/02 03:43:33;;;;;;;6.25;5.10;;;11.10;99.90;;;;;;2104441;28;20477;-71
2022/09/02 03:44:33;;;;;;;5.57;4.78;;;11.10;99.90;;;;;;2121323;27;20026;-71
2022/09/02 03:45:34;;;;;;;6.32;5.10;;;11.10;99.90;;;;;;2113022;28;20035;-73
2022/09/02 03:46:38;;;;;;;5.28;4.82;;;11.10;99.90;;;;;;2121854;28;20098;-72
2022/09/02 03:47:50;;;;;;;6.03;5.03;;;11.10;99.90;;;;;;2121796;28;20035;-72
2022/09/02 03:48:52;;;;;;;5.30;4.80;;;11.10;99.90;;;;;;2114245;28;20050;-72
2022/09/02 03:49:54;;;;;;;5.90;4.88;;;11.10;99.90;;;;;;2104511;28;20034;-72
2022/09/02 03:50:56;;;;;;;7.60;5.20;;;11.10;99.90;;;;;;2104539;28;20020;-72
2022/09/02 03:51:56;;;;;;;7.20;5.57;;;11.10;99.90;;;;;;2104049;28;20032;-72
2022/09/02 03:52:58;;;;;;;5.90;5.10;;;11.10;99.90;;;;;;2121053;27;20555;-72
2022/09/02 03:54:02;;;;;;;5.53;4.97;;;11.10;99.90;;;;;;2121880;27;20023;-72
2022/09/02 03:55:04;;;;;;;5.63;4.97;;;11.10;99.90;;;;;;2121069;28;20019;-73
2022/09/02 03:56:10;;;;;;;5.60;5.10;;;11.10;99.90;;;;;;2121381;28;20031;-72
2022/09/02 03:57:12;;;;;;;5.80;5.15;;;11.10;99.90;;;;;;2113659;28;20032;-72
2022/09/02 03:58:13;;;;;;;6.45;5.38;;;11.10;99.90;;;;;;2112621;28;20035;-72
2022/09/02 03:59:14;;;;;;;5.70;5.10;;;11.10;99.90;;;;;;2112758;28;20032;-72
2022/09/02 04:00:18;;;;;;;5.40;4.90;;;11.10;99.90;;;;;;2112767;28;20168;-72
2022/09/02 04:01:24;;;;;;;5.80;5.20;;;11.10;99.90;;;;;;2112733;28;20024;-72
2022/09/02 04:02:25;;;;;;;6.90;5.22;;;11.10;99.90;;;;;;2112673;28;20031;-71
2022/09/02 04:03:26;;;;;;;6.13;5.15;;;11.10;99.90;;;;;;2120908;27;20024;-72
2022/09/02 04:04:28;;;;;;;5.85;4.93;;;11.00;99.90;;;;;;2121018;27;20439;-71
2022/09/02 04:05:29;;;;;;;7.07;5.32;;;11.00;99.90;;;;;;2112339;28;20030;-70
2022/09/02 04:06:32;;;;;;;6.32;5.22;;;11.00;99.90;;;;;;2112424;28;20085;-71
2022/09/02 04:07:33;;;;;;;5.95;5.30;;;11.00;99.90;;;;;;2112483;28;20034;-70
2022/09/02 04:08:35;;;;;;;7.15;5.45;;;11.00;99.90;;;;;;2112156;28;20448;-71
2022/09/02 04:09:36;;;;;;;7.50;5.40;;;11.00;99.90;;;;;;2120996;28;20106;-71
2022/09/02 04:10:37;;;;;;;5.82;5.25;;;11.00;99.90;;;;;;2120805;27;20480;-70
2022/09/02 04:11:41;;;;;;;6.07;5.45;;;11.00;99.90;;;;;;2112575;28;20027;-70
2022/09/02 04:12:43;;;;;;;5.82;5.22;;;11.00;99.90;;;;;;2112451;28;20027;-71
2022/09/02 04:13:45;;;;;;;6.05;5.03;;;11.00;99.90;;;;;;2120875;28;20027;-70
2022/09/02 04:14:49;;;;;;;6.00;5.40;;;11.00;99.90;;;;;;2112803;28;20035;-70
2022/09/02 04:15:52;;;;;;;5.78;5.07;;;11.00;99.90;;;;;;2112438;28;20504;-70
2022/09/02 04:16:56;;;;;;;7.28;5.28;;;11.00;99.90;;;;;;2112554;28;20043;-70
2022/09/02 04:17:57;;;;;;;7.75;5.60;;;11.00;99.90;;;;;;2112409;28;20031;-71
2022/09/02 04:19:00;;;;;;;5.88;5.25;;;11.00;99.90;;;;;;2104157;28;20612;-71
2022/09/02 04:20:04;;;;;;;7.07;5.18;;;11.00;99.90;;;;;;2112683;28;20059;-70
2022/09/02 04:21:07;;;;;;;6.95;5.72;;;11.00;99.90;;;;;;2112648;28;20062;-71
2022/09/02 04:22:09;;;;;;;6.78;5.20;;;11.00;99.90;;;;;;2112436;28;20023;-70
2022/09/02 04:23:12;;;;;;;7.93;5.28;;;11.00;99.90;;;;;;2112589;28;20028;-70
2022/09/02 04:24:15;;;;;;;6.22;5.30;;;11.00;99.90;;;;;;2104959;28;20084;-70
2022/09/02 04:25:19;;;;;;;6.53;5.50;;;11.00;99.90;;;;;;2121063;27;20023;-71
2022/09/02 04:26:21;;;;;;;7.28;5.30;;;11.00;99.90;;;;;;2120861;28;20046;-71
2022/09/02 04:27:26;;;;;;;7.25;5.32;;;11.10;99.90;;;;;;2114276;28;20548;-70
2022/09/02 04:28:28;;;;;;;6.50;5.35;;;11.00;99.90;;;;;;2121592;27;20027;-70
2022/09/02 04:29:30;;;;;;;5.75;5.07;;;11.00;99.90;;;;;;2114417;28;20077;-70
2022/09/02 04:30:31;;;;;;;5.68;5.05;;;11.00;99.90;;;;;;2114789;28;20609;-71
2022/09/02 04:31:32;;;;;;;6.20;5.22;;;11.00;99.90;;;;;;2115095;28;20028;-71
2022/09/02 04:32:35;;;;;;;5.90;5.20;;;11.00;99.90;;;;;;2123091;27;20061;-71
2022/09/02 04:33:37;;;;;;;6.43;5.20;;;11.00;99.90;;;;;;2114727;28;20024;-71
2022/09/02 04:34:42;;;;;;;6.20;5.00;;;11.00;99.90;;;;;;2106632;28;20046;-71
2022/09/02 04:35:45;;;;;;;7.47;5.45;;;10.90;99.90;;;;;;2114942;27;20037;-72
2022/09/02 04:36:48;;;;;;;7.38;5.15;;;10.90;99.90;;;;;;2122872;27;20030;-72
2022/09/02 04:37:51;;;;;;;8.20;5.32;;;10.90;99.90;;;;;;2123141;27;20038;-71
2022/09/02 04:38:53;;;;;;;7.65;5.30;;;10.90;99.90;;;;;;2114504;28;20034;-69
2022/09/02 04:39:57;;;;;;;6.90;5.63;;;10.90;99.90;;;;;;2114964;27;20054;-71
2022/09/02 04:41:04;;;;;;;9.98;5.93;;;10.90;99.90;;;;;;2114807;28;20031;-71
2022/09/02 04:42:13;;;;;;;7.05;6.35;;;10.90;99.90;;;;;;2115455;27;20028;-72
2022/09/02 04:43:14;;;;;;;8.05;6.65;;;10.90;99.90;;;;;;2115977;27;20062;-71
2022/09/02 04:44:15;;;;;;;9.32;7.07;;;10.90;99.90;;;;;;2114722;28;20031;-71
2022/09/02 04:45:21;;;;;;;7.85;6.38;;;11.00;99.90;;;;;;2115292;27;20031;-71
2022/09/02 04:46:23;;;;;;;6.80;6.05;;;11.00;99.90;;;;;;2123180;27;20067;-70
2022/09/02 04:47:25;;;;;;;6.88;5.88;;;11.00;99.90;;;;;;2114790;28;20032;-69
2022/09/02 04:48:32;;;;;;;6.93;5.80;;;11.00;99.90;;;;;;2114620;28;20102;-70
2022/09/02 04:49:33;;;;;;;8.52;6.07;;;11.00;99.90;;;;;;2115031;27;20835;-70
2022/09/02 04:50:35;;;;;;;6.60;5.93;;;11.10;99.90;;;;;;2114430;28;20020;-72
2022/09/02 04:51:36;;;;;;;8.90;5.60;;;11.00;99.90;;;;;;2122872;27;20488;-70
2022/09/02 04:52:39;;;;;;;6.30;5.65;;;11.10;99.90;;;;;;2122503;27;20127;-71
2022/09/02 04:53:40;;;;;;;8.00;5.90;;;11.10;99.90;;;;;;2106141;28;20402;-71
2022/09/02 04:54:43;;;;;;;7.13;5.25;;;11.10;99.90;;;;;;2105862;28;20032;-70
2022/09/02 04:55:45;;;;;;;6.05;5.18;;;11.10;99.90;;;;;;2114624;28;20027;-70
2022/09/02 04:56:48;;;;;;;7.25;5.20;;;11.10;99.90;;;;;;2114546;27;20057;-72
2022/09/02 04:57:49;;;;;;;6.00;5.20;;;11.10;99.90;;;;;;2113902;28;20719;-69
2022/09/02 04:58:50;;;;;;;8.07;5.15;;;11.20;99.90;;;;;;2113955;28;20023;-70
2022/09/02 05:00:00;;;;;;;7.75;5.25;;;11.20;99.90;;;;;;2114497;28;20130;-71
2022/09/02 05:01:19;;;;;;;7.85;5.38;;;11.20;99.90;;;;;;2115348;27;20479;-71
2022/09/02 05:02:24;;;;;;;7.40;5.25;;;11.30;99.90;;;;;;2116255;27;20057;-71
2022/09/02 05:03:26;;;;;;;6.18;5.45;;;11.30;99.90;;;;;;2114131;27;20030;-71
2022/09/02 05:04:32;;;;;;;8.10;5.55;;;11.30;99.90;;;;;;2122775;27;20015;-72
2022/09/02 05:05:34;;;;;;;6.32;5.32;;;11.30;99.90;;;;;;2122169;27;20024;-71
2022/09/02 05:06:38;;;;;;;6.30;5.32;;;11.40;99.90;;;;;;2114099;27;20020;-71
2022/09/02 05:07:39;;;;;;;6.65;5.20;;;11.40;99.90;;;;;;2114178;28;20137;-71
2022/09/02 05:08:42;;;;;;;5.60;4.82;;;11.50;99.90;;;;;;2113847;27;20031;-72
2022/09/02 05:09:44;;;;;;;7.47;5.40;;;11.60;99.90;;;;;;2114121;27;20082;-74
2022/09/02 05:10:47;;;;;;;8.27;5.07;;;11.90;99.90;;;;;;2122307;27;20038;-73
2022/09/02 05:11:47;;;;;;;10.15;5.35;;;12.10;99.90;;;;;;2122397;27;20513;-74
2022/09/02 05:12:51;;;;;;;6.35;4.70;;;12.40;99.90;;;;;;2122701;27;20031;-75
2022/09/02 05:13:51;;;;;;;8.93;4.68;;;12.80;99.90;;;;;;2122647;27;20114;-73
2022/09/02 05:14:55;;;;;;;5.28;4.28;;;13.10;99.90;;;;;;2122760;27;20155;-75
2022/09/02 05:15:58;;;;;;;6.30;4.00;;;13.40;99.90;;;;;;2114237;27;20024;-74
2022/09/02 05:17:00;;;;;;;5.38;3.97;;;13.70;99.90;;;;;;2105730;28;20021;-77
2022/09/02 05:18:04;;;;;;;4.50;4.10;;;13.90;99.90;;;;;;2097735;28;20029;-78
2022/09/02 05:19:09;;;;;;;6.50;4.10;;;14.20;99.90;;;;;;2107032;27;20035;-76
2022/09/02 05:20:14;;;;;;;5.50;3.60;;;14.40;99.90;;;;;;2122836;27;20734;-77
2022/09/02 05:21:15;;;;;;;6.63;4.00;;;14.70;99.90;;;;;;2122421;27;20023;-76
2022/09/02 05:22:16;;;;;;;6.25;4.00;;;14.90;99.90;;;;;;2114144;28;20096;-76
2022/09/02 05:23:18;;;;;;;4.28;3.45;;;15.10;99.90;;;;;;2115215;27;20528;-76
2022/09/02 05:24:20;;;;;;;4.43;3.50;;;15.20;99.90;;;;;;2123538;27;20406;-75
2022/09/02 05:25:21;;;;;;;3.80;3.40;;;15.40;99.90;;;;;;2114619;28;20095;-75
2022/09/02 05:26:23;;;;;;;4.88;3.75;;;15.60;99.90;;;;;;2114614;28;20032;-75
2022/09/02 05:27:25;;;;;;;7.43;4.00;;;15.70;99.90;;;;;;2114573;28;20050;-73
2022/09/02 05:28:26;;;;;;;5.75;3.60;;;15.80;99.90;;;;;;2113480;28;20441;-73
2022/09/02 05:29:26;;;;;;;4.50;3.70;;;15.90;99.90;;;;;;2122343;27;20024;-74
2022/09/02 05:30:30;;;;;;;4.15;3.42;;;16.00;99.90;;;;;;2122138;27;20019;-74